Time;durP1;ratioP1;P1;durP2;ratioP2;P2;SDS_P1;SDS_P2;PMS_P1;PMS_P2;Temp;Humidity;BMP_temperature;BMP_pressure;BME280_temperature;BME280_humidity;BME280_pressure;Samples;Min_cycle;Max_cycle;Signal;HPM_P1;HPM_P2
2022/09/15 00:01:41;;;;;;;8.38;4.60;;;17.10;99.90;;;;;;5045003;28;20151;-80
2022/09/15 00:04:08;;;;;;;8.85;4.00;;;17.10;99.90;;;;;;5031971;28;20036;-81
2022/09/15 00:06:34;;;;;;;8.25;4.75;;;17.10;99.90;;;;;;5034047;28;20043;-80
2022/09/15 00:09:02;;;;;;;9.75;4.65;;;17.10;99.90;;;;;;5017583;28;20501;-81
2022/09/15 00:11:32;;;;;;;7.65;4.00;;;17.10;99.90;;;;;;5031062;28;20041;-81
2022/09/15 00:14:00;;;;;;;6.80;4.70;;;17.10;99.90;;;;;;5024919;28;20056;-80
2022/09/15 00:16:29;;;;;;;9.68;4.13;;;17.20;99.90;;;;;;5052111;28;20040;-79
2022/09/15 00:18:56;;;;;;;9.93;4.68;;;17.20;99.90;;;;;;5014560;28;20045;-82
2022/09/15 00:21:26;;;;;;;7.88;4.95;;;17.20;99.90;;;;;;5017050;28;20045;-80
2022/09/15 00:23:53;;;;;;;8.88;4.18;;;17.20;99.90;;;;;;5050352;28;20033;-81
2022/09/15 00:26:21;;;;;;;9.45;4.57;;;17.30;99.90;;;;;;5051209;28;20040;-80
2022/09/15 00:28:48;;;;;;;10.18;5.10;;;17.30;99.90;;;;;;5051893;28;20033;-80
2022/09/15 00:31:17;;;;;;;9.70;4.60;;;17.30;99.90;;;;;;5051147;28;20045;-80
2022/09/15 00:33:46;;;;;;;8.50;4.40;;;17.40;99.90;;;;;;5050343;28;20450;-80
2022/09/15 00:36:13;;;;;;;11.93;4.93;;;17.40;99.90;;;;;;5051143;28;20044;-80
2022/09/15 00:38:40;;;;;;;8.45;4.53;;;17.40;99.90;;;;;;5049121;28;20280;-80
2022/09/15 00:41:08;;;;;;;7.47;4.28;;;17.40;99.90;;;;;;5045268;28;20482;-81
2022/09/15 00:43:55;;;;;;;6.40;4.60;;;17.40;99.90;;;;;;5031591;28;20033;-81
2022/09/15 00:46:28;;;;;;;7.28;4.60;;;17.40;99.90;;;;;;5051080;28;20037;-80
2022/09/15 00:49:17;;;;;;;9.05;5.40;;;17.30;99.90;;;;;;5033127;28;20045;-80
2022/09/15 00:51:55;;;;;;;8.43;4.82;;;17.40;99.90;;;;;;5051745;28;20052;-81
2022/09/15 00:54:48;;;;;;;7.90;5.13;;;17.30;99.90;;;;;;5011454;28;20041;-80
2022/09/15 00:57:23;;;;;;;10.15;5.43;;;17.30;99.90;;;;;;5042538;28;20410;-81
2022/09/15 00:59:50;;;;;;;8.18;5.47;;;17.30;99.90;;;;;;5051124;28;20056;-81
2022/09/15 01:02:31;;;;;;;9.70;5.70;;;17.30;99.90;;;;;;5050599;28;20045;-81
2022/09/15 01:05:00;;;;;;;11.50;5.53;;;17.30;99.90;;;;;;5032120;28;20466;-80
2022/09/15 01:07:32;;;;;;;10.23;5.97;;;17.30;99.90;;;;;;5032723;28;20052;-80
2022/09/15 01:10:04;;;;;;;11.00;5.68;;;17.40;99.90;;;;;;5033753;28;20036;-82
2022/09/15 01:12:30;;;;;;;10.02;4.90;;;17.40;99.90;;;;;;5033832;28;20037;-80
2022/09/15 01:14:59;;;;;;;9.35;5.32;;;17.40;99.90;;;;;;5050082;28;20398;-80
2022/09/15 01:17:33;;;;;;;8.13;5.43;;;17.40;99.90;;;;;;5054870;28;20037;-80
2022/09/15 01:20:30;;;;;;;8.82;5.82;;;17.40;99.90;;;;;;5033415;28;20302;-84
2022/09/15 01:23:34;;;;;;;11.63;6.50;;;17.40;99.90;;;;;;5033050;28;20059;-80
2022/09/15 01:26:37;;;;;;;10.40;6.75;;;17.40;99.90;;;;;;5036696;28;20033;-82
2022/09/15 01:29:42;;;;;;;11.55;6.60;;;17.40;99.90;;;;;;5036266;28;20037;-81
2022/09/15 01:35:32;;;;;;;;;;;17.40;99.90;;;;;;5053076;28;20049;-81
2022/09/15 01:38:07;;;;;;;12.02;6.68;;;17.40;99.90;;;;;;5054733;28;20251;-81
2022/09/15 01:40:40;;;;;;;10.93;5.95;;;17.40;99.90;;;;;;5054603;28;20033;-81
2022/09/15 01:43:09;;;;;;;10.20;6.18;;;17.40;99.90;;;;;;5034944;28;20065;-81
2022/09/15 01:45:40;;;;;;;8.38;5.40;;;17.40;99.90;;;;;;5019741;28;20037;-80
2022/09/15 01:48:07;;;;;;;;;;;17.40;99.90;;;;;;5036727;28;20048;-81
2022/09/15 01:50:42;;;;;;;9.50;5.40;;;17.40;99.90;;;;;;5036611;28;19915;-81
2022/09/15 01:53:13;;;;;;;9.15;5.00;;;17.40;99.90;;;;;;5053335;28;20024;-81
2022/09/15 01:55:55;;;;;;;7.25;5.47;;;17.40;99.90;;;;;;5034046;28;20044;-81
2022/09/15 01:58:21;;;;;;;7.97;4.88;;;17.40;99.90;;;;;;5054037;28;20048;-80
2022/09/15 02:01:04;;;;;;;7.38;4.40;;;17.40;99.90;;;;;;5054061;28;20056;-81
2022/09/15 02:03:56;;;;;;;7.03;4.70;;;17.40;99.90;;;;;;5054207;28;20029;-81
2022/09/15 02:06:34;;;;;;;12.25;5.10;;;17.40;99.90;;;;;;5052270;28;20037;-81
2022/09/15 02:09:42;;;;;;;7.57;4.72;;;17.30;99.90;;;;;;5054214;28;20033;-83
2022/09/15 02:12:28;;;;;;;6.72;4.57;;;17.30;99.90;;;;;;5052877;28;20044;-81
2022/09/15 02:15:07;;;;;;;8.30;5.03;;;17.30;99.90;;;;;;5034954;28;20045;-83
2022/09/15 02:17:41;;;;;;;6.35;4.90;;;17.40;99.90;;;;;;5054261;28;20398;-82
2022/09/15 02:20:14;;;;;;;9.43;5.28;;;17.30;99.90;;;;;;5053182;28;20478;-83
2022/09/15 02:22:47;;;;;;;10.52;4.90;;;17.40;99.90;;;;;;5053730;28;20040;-82
2022/09/15 02:25:20;;;;;;;7.55;5.25;;;17.40;99.90;;;;;;5051711;28;20036;-83
2022/09/15 02:27:51;;;;;;;7.05;4.93;;;17.30;99.90;;;;;;5035363;28;20045;-82
2022/09/15 02:30:19;;;;;;;7.82;4.78;;;17.40;99.90;;;;;;5050396;28;20032;-82
2022/09/15 02:32:55;;;;;;;8.82;5.18;;;17.30;99.90;;;;;;5035189;28;20454;-82
2022/09/15 02:35:24;;;;;;;8.98;6.15;;;17.30;99.90;;;;;;5033916;28;20037;-82
2022/09/15 02:37:51;;;;;;;9.57;5.93;;;17.30;99.90;;;;;;5053526;28;20032;-82
2022/09/15 02:40:18;;;;;;;9.15;5.78;;;17.30;99.90;;;;;;5035028;28;20063;-82
2022/09/15 02:42:55;;;;;;;13.18;6.35;;;17.40;99.90;;;;;;5053454;28;20415;-82
2022/09/15 02:45:25;;;;;;;8.70;5.40;;;17.30;99.90;;;;;;5045277;28;20059;-82
2022/09/15 02:47:52;;;;;;;8.70;5.68;;;17.30;99.90;;;;;;5047030;28;20489;-82
2022/09/15 02:50:19;;;;;;;7.53;4.80;;;17.30;99.90;;;;;;5052752;28;20040;-82
2022/09/15 02:52:45;;;;;;;7.90;5.13;;;17.30;99.90;;;;;;5052904;28;20067;-82
2022/09/15 02:55:12;;;;;;;8.85;5.15;;;17.30;99.90;;;;;;5033460;28;20044;-83
2022/09/15 02:57:38;;;;;;;7.07;5.05;;;17.30;99.90;;;;;;5035184;28;20036;-83
2022/09/15 03:00:11;;;;;;;6.65;4.95;;;17.30;99.90;;;;;;5034301;28;20052;-84
2022/09/15 03:02:44;;;;;;;10.38;5.72;;;17.30;99.90;;;;;;5052912;28;20040;-82
2022/09/15 03:05:12;;;;;;;10.82;6.68;;;17.30;99.90;;;;;;5053302;28;20489;-83
2022/09/15 03:07:39;;;;;;;13.77;7.35;;;17.30;99.90;;;;;;5036768;28;20036;-82
2022/09/15 03:10:06;;;;;;;11.25;6.88;;;17.30;99.90;;;;;;5045344;28;20052;-82
2022/09/15 03:12:41;;;;;;;9.60;7.25;;;17.30;99.90;;;;;;5028288;28;20394;-81
2022/09/15 03:15:09;;;;;;;9.85;7.22;;;17.40;99.90;;;;;;5033796;28;20041;-81
2022/09/15 03:17:38;;;;;;;8.35;5.97;;;17.40;99.90;;;;;;5035783;28;20041;-82
2022/09/15 03:20:06;;;;;;;9.10;5.60;;;17.40;99.90;;;;;;5053003;28;20029;-82
2022/09/15 03:22:33;;;;;;;7.55;5.20;;;17.40;99.90;;;;;;5035163;28;20037;-82
2022/09/15 03:25:00;;;;;;;9.25;5.93;;;17.40;99.90;;;;;;5051776;28;20029;-81
2022/09/15 03:27:26;;;;;;;8.40;5.70;;;17.40;99.90;;;;;;5052018;28;20382;-82
2022/09/15 03:29:52;;;;;;;10.98;7.40;;;17.40;99.90;;;;;;5034873;28;20363;-82
2022/09/15 03:32:18;;;;;;;12.60;7.88;;;17.40;99.90;;;;;;5052232;28;20493;-82
2022/09/15 03:34:45;;;;;;;13.00;8.05;;;17.40;99.90;;;;;;5062224;28;20040;-82
2022/09/15 03:37:11;;;;;;;19.27;8.80;;;17.40;99.90;;;;;;5053573;28;20087;-81
2022/09/15 03:39:37;;;;;;;16.52;8.93;;;17.30;99.90;;;;;;5035399;28;20033;-82
2022/09/15 03:42:04;;;;;;;14.65;9.73;;;17.40;99.90;;;;;;5052722;28;20466;-82
2022/09/15 03:44:30;;;;;;;15.50;9.40;;;17.40;99.90;;;;;;5051327;28;20509;-82
2022/09/15 03:46:57;;;;;;;18.08;10.10;;;17.30;99.90;;;;;;5034153;28;20032;-81
2022/09/15 03:49:24;;;;;;;16.58;10.30;;;17.40;99.90;;;;;;5043946;28;20037;-81
2022/09/15 03:51:50;;;;;;;16.38;10.90;;;17.40;99.90;;;;;;5048628;28;20478;-83
2022/09/15 03:54:16;;;;;;;16.73;11.15;;;17.30;99.90;;;;;;5033857;28;20040;-83
2022/09/15 03:56:46;;;;;;;17.35;11.32;;;17.30;99.90;;;;;;5051394;28;20485;-83
2022/09/15 03:59:12;;;;;;;23.08;13.57;;;17.30;99.90;;;;;;5033463;28;20485;-82
2022/09/15 04:01:38;;;;;;;15.32;10.75;;;17.30;99.90;;;;;;5053386;28;20041;-81
2022/09/15 04:04:05;;;;;;;9.70;7.38;;;17.30;99.90;;;;;;5052568;28;20378;-79
2022/09/15 04:06:32;;;;;;;9.60;6.57;;;17.20;99.90;;;;;;5051313;28;20036;-79
2022/09/15 04:08:59;;;;;;;9.57;6.20;;;17.10;99.90;;;;;;5052468;28;20025;-81
2022/09/15 04:11:25;;;;;;;8.80;5.45;;;17.10;99.90;;;;;;5046820;28;20481;-79
2022/09/15 04:13:52;;;;;;;7.03;4.95;;;17.00;99.90;;;;;;5050473;28;20033;-80
2022/09/15 04:16:24;;;;;;;7.15;4.90;;;17.00;99.90;;;;;;5041961;28;20033;-78
2022/09/15 04:18:51;;;;;;;5.55;4.13;;;16.90;99.90;;;;;;5034314;28;20491;-77
2022/09/15 04:21:20;;;;;;;10.60;4.45;;;16.90;99.90;;;;;;5045212;28;20040;-77
2022/09/15 04:23:47;;;;;;;5.28;3.63;;;16.90;99.90;;;;;;5049732;28;20056;-78
2022/09/15 04:26:21;;;;;;;4.82;3.20;;;16.90;99.90;;;;;;5042319;28;20474;-78
2022/09/15 04:28:47;;;;;;;7.13;3.60;;;16.80;99.90;;;;;;5040689;28;20037;-78
2022/09/15 04:31:15;;;;;;;5.05;3.13;;;16.80;99.90;;;;;;5051096;28;20044;-79
2022/09/15 04:33:42;;;;;;;4.53;3.08;;;16.70;99.90;;;;;;5051615;28;20029;-79
2022/09/15 04:36:13;;;;;;;4.80;2.80;;;16.70;99.90;;;;;;5050047;28;20485;-78
2022/09/15 04:38:39;;;;;;;4.55;2.58;;;16.70;99.90;;;;;;5051279;28;20104;-77
2022/09/15 04:41:06;;;;;;;3.22;1.83;;;16.70;99.90;;;;;;5044968;28;20040;-77
2022/09/15 04:43:32;;;;;;;9.15;2.40;;;16.60;99.90;;;;;;5051903;28;20056;-76
2022/09/15 04:45:59;;;;;;;3.15;1.92;;;16.60;99.90;;;;;;5050594;28;20029;-77
2022/09/15 04:48:25;;;;;;;3.33;1.90;;;16.50;99.90;;;;;;5050760;28;20029;-75
2022/09/15 04:50:52;;;;;;;2.60;1.42;;;16.60;99.90;;;;;;5054023;28;20454;-76
2022/09/15 04:53:18;;;;;;;3.83;2.30;;;16.50;99.90;;;;;;5054883;28;20036;-77
2022/09/15 04:55:44;;;;;;;3.63;1.95;;;16.50;99.90;;;;;;5036984;28;20025;-77
2022/09/15 04:58:12;;;;;;;3.40;2.00;;;16.50;99.90;;;;;;5054922;28;20049;-77
2022/09/15 05:00:41;;;;;;;3.50;1.90;;;16.50;99.90;;;;;;5037407;28;20052;-77
2022/09/15 05:03:13;;;;;;;3.28;1.88;;;16.50;99.90;;;;;;5055113;28;20037;-78
2022/09/15 05:05:40;;;;;;;3.85;1.95;;;16.40;99.90;;;;;;5054288;28;20054;-78
2022/09/15 05:08:07;;;;;;;5.53;2.10;;;16.40;99.90;;;;;;5036225;28;20331;-80
2022/09/15 05:10:33;;;;;;;5.20;2.60;;;16.40;99.90;;;;;;5048049;28;20021;-79
2022/09/15 05:12:59;;;;;;;9.13;3.42;;;16.40;99.90;;;;;;5054967;28;20091;-78
2022/09/15 05:15:25;;;;;;;7.10;3.95;;;16.50;99.90;;;;;;5052754;28;20382;-79
2022/09/15 05:17:52;;;;;;;7.63;3.42;;;16.40;99.90;;;;;;5056561;28;20033;-78
2022/09/15 05:20:18;;;;;;;6.13;3.25;;;16.40;99.90;;;;;;5054506;28;20069;-77
2022/09/15 05:22:44;;;;;;;7.47;4.45;;;16.20;99.90;;;;;;5055593;28;20029;-77
2022/09/15 05:25:11;;;;;;;7.32;3.72;;;16.20;99.90;;;;;;5035804;28;20041;-78
2022/09/15 05:27:38;;;;;;;8.73;4.30;;;16.10;99.90;;;;;;5054565;28;20040;-76
2022/09/15 05:30:06;;;;;;;9.98;4.40;;;16.00;99.90;;;;;;5054994;28;20478;-75
2022/09/15 05:32:32;;;;;;;9.68;5.28;;;15.90;99.90;;;;;;5054665;28;20036;-77
2022/09/15 05:34:58;;;;;;;12.38;6.72;;;15.90;99.90;;;;;;5054120;28;20390;-75
2022/09/15 05:37:24;;;;;;;12.57;6.32;;;15.80;99.90;;;;;;5054128;28;20379;-76
2022/09/15 05:39:50;;;;;;;11.93;6.43;;;15.70;99.90;;;;;;5054797;28;20044;-77
2022/09/15 05:42:17;;;;;;;13.00;6.95;;;15.60;99.90;;;;;;5054243;28;20052;-75
2022/09/15 05:44:44;;;;;;;17.25;7.93;;;15.50;99.90;;;;;;5047642;28;20064;-77
2022/09/15 05:47:10;;;;;;;14.00;8.02;;;15.40;99.90;;;;;;5054977;28;20029;-76
2022/09/15 05:49:36;;;;;;;18.85;9.35;;;15.50;99.90;;;;;;5054752;28;20037;-75
2022/09/15 05:52:03;;;;;;;17.17;8.73;;;15.40;99.90;;;;;;5036975;28;20059;-75
2022/09/15 05:54:29;;;;;;;24.85;11.43;;;15.50;99.90;;;;;;5053883;28;20039;-79
2022/09/15 05:56:55;;;;;;;26.42;12.20;;;15.30;99.90;;;;;;5054009;28;20033;-79
2022/09/15 05:59:21;;;;;;;30.98;15.02;;;15.30;99.90;;;;;;5053983;28;20068;-78
2022/09/15 06:01:47;;;;;;;38.15;16.70;;;15.20;99.90;;;;;;5054144;28;20044;-75
2022/09/15 06:04:13;;;;;;;38.28;16.90;;;15.10;99.90;;;;;;5053659;28;20037;-78
2022/09/15 06:06:40;;;;;;;35.83;15.85;;;15.10;99.90;;;;;;5053313;28;20041;-77
2022/09/15 06:09:06;;;;;;;34.92;16.75;;;15.00;99.90;;;;;;5057079;28;20485;-78
2022/09/15 06:11:32;;;;;;;41.03;18.63;;;15.00;99.90;;;;;;5054204;28;20037;-75
2022/09/15 06:13:59;;;;;;;49.42;18.67;;;14.90;99.90;;;;;;5054477;28;20040;-75
2022/09/15 06:16:26;;;;;;;36.88;18.08;;;14.90;99.90;;;;;;5053577;28;20060;-76
2022/09/15 06:18:52;;;;;;;43.75;18.92;;;14.80;99.90;;;;;;5054192;28;20036;-76
2022/09/15 06:21:20;;;;;;;46.70;20.67;;;14.90;99.90;;;;;;5053799;28;20033;-77
2022/09/15 06:23:52;;;;;;;48.25;18.67;;;14.80;99.90;;;;;;5054550;28;20064;-76
2022/09/15 06:26:19;;;;;;;45.67;20.65;;;14.90;99.90;;;;;;5052647;28;20088;-78
2022/09/15 06:28:49;;;;;;;51.40;21.40;;;14.90;99.90;;;;;;5053557;28;20036;-77
2022/09/15 06:31:15;;;;;;;62.53;23.00;;;14.80;99.90;;;;;;5053480;28;20036;-78
2022/09/15 06:33:44;;;;;;;51.08;21.05;;;14.80;99.90;;;;;;5054276;28;20386;-78
2022/09/15 06:36:14;;;;;;;59.05;22.38;;;14.90;99.90;;;;;;5053780;28;20028;-76
2022/09/15 06:38:42;;;;;;;60.78;21.95;;;14.90;99.90;;;;;;5053636;28;20029;-75
2022/09/15 06:41:09;;;;;;;55.35;23.23;;;14.90;99.90;;;;;;5054055;28;20032;-75
2022/09/15 06:43:36;;;;;;;38.60;17.23;;;14.90;99.90;;;;;;5034769;28;20058;-74
2022/09/15 06:46:07;;;;;;;23.27;11.25;;;14.80;99.90;;;;;;5053754;28;20025;-76
2022/09/15 06:48:35;;;;;;;20.77;10.80;;;14.50;99.90;;;;;;5053134;28;20426;-76
2022/09/15 06:51:02;;;;;;;20.52;9.93;;;14.40;99.90;;;;;;5054062;28;20044;-74
2022/09/15 06:53:33;;;;;;;21.00;10.65;;;14.30;99.90;;;;;;5052797;28;20029;-74
2022/09/15 06:56:07;;;;;;;18.42;9.88;;;14.30;99.90;;;;;;5052138;28;20036;-74
2022/09/15 06:58:35;;;;;;;21.35;12.35;;;14.30;99.90;;;;;;5052388;28;20541;-74
2022/09/15 07:01:03;;;;;;;17.60;10.38;;;14.30;99.90;;;;;;5053843;28;20386;-76
2022/09/15 07:03:30;;;;;;;23.33;10.70;;;14.30;99.90;;;;;;5054678;28;20040;-75
2022/09/15 07:05:56;;;;;;;17.92;9.25;;;14.20;99.90;;;;;;5052582;28;20033;-74
2022/09/15 07:08:22;;;;;;;19.27;10.60;;;14.20;99.90;;;;;;5036284;28;20482;-75
2022/09/15 07:10:48;;;;;;;20.42;9.27;;;14.30;99.90;;;;;;5036377;28;20033;-75
2022/09/15 07:13:14;;;;;;;20.65;8.90;;;14.40;99.90;;;;;;5052789;28;20387;-75
2022/09/15 07:15:47;;;;;;;17.95;8.70;;;14.40;99.90;;;;;;5054046;28;20036;-74
2022/09/15 07:18:14;;;;;;;14.18;8.15;;;14.40;99.90;;;;;;5052864;28;20036;-77
2022/09/15 07:20:40;;;;;;;13.60;7.60;;;14.40;99.90;;;;;;5054211;28;20033;-75
2022/09/15 07:23:06;;;;;;;12.27;6.78;;;14.30;99.90;;;;;;5035743;28;20037;-75
2022/09/15 07:25:33;;;;;;;12.70;7.57;;;14.40;99.90;;;;;;5051608;28;20033;-75
2022/09/15 07:27:59;;;;;;;13.20;8.32;;;14.30;99.90;;;;;;5052708;28;20040;-75
2022/09/15 07:30:25;;;;;;;16.60;7.88;;;14.40;99.90;;;;;;5052277;28;20470;-76
2022/09/15 07:32:51;;;;;;;14.23;7.13;;;14.50;99.90;;;;;;5054988;28;20044;-77
2022/09/15 07:35:19;;;;;;;14.63;7.90;;;14.50;99.90;;;;;;5054146;28;20035;-77
2022/09/15 07:37:47;;;;;;;11.13;8.10;;;14.50;99.90;;;;;;5038871;28;20037;-77
2022/09/15 07:40:14;;;;;;;15.00;8.60;;;14.60;99.90;;;;;;5061844;28;20025;-78
2022/09/15 07:42:44;;;;;;;12.93;7.53;;;14.60;99.90;;;;;;5063279;28;20033;-76
2022/09/15 07:45:10;;;;;;;13.45;7.18;;;14.60;99.90;;;;;;5055143;28;20374;-76
2022/09/15 07:47:37;;;;;;;12.48;7.40;;;14.70;99.90;;;;;;5055750;28;20029;-77
2022/09/15 07:50:05;;;;;;;12.25;7.40;;;14.80;99.90;;;;;;5057006;28;20032;-77
2022/09/15 07:52:31;;;;;;;12.32;7.68;;;14.80;99.90;;;;;;5052868;28;20032;-77
2022/09/15 07:54:57;;;;;;;10.27;6.95;;;14.80;99.90;;;;;;5053985;28;20033;-77
2022/09/15 07:57:24;;;;;;;10.88;6.57;;;14.70;99.90;;;;;;5039076;28;20123;-77
2022/09/15 07:59:50;;;;;;;12.02;7.57;;;14.90;99.90;;;;;;5055932;28;20048;-77
2022/09/15 08:02:18;;;;;;;11.80;7.22;;;15.00;99.90;;;;;;5053769;28;20048;-79
2022/09/15 08:04:44;;;;;;;14.02;7.10;;;15.10;99.90;;;;;;5026399;28;20060;-77
2022/09/15 08:07:10;;;;;;;16.10;7.68;;;15.10;99.90;;;;;;5047611;28;20036;-77
2022/09/15 08:09:38;;;;;;;10.93;6.70;;;15.10;99.90;;;;;;5051673;28;20037;-77
2022/09/15 08:12:05;;;;;;;14.95;6.93;;;15.20;99.90;;;;;;5052204;28;20033;-76
2022/09/15 08:14:32;;;;;;;12.98;8.77;;;15.20;99.90;;;;;;5050414;28;20413;-77
2022/09/15 08:17:03;;;;;;;13.27;7.53;;;15.00;99.90;;;;;;5051962;28;20036;-77
2022/09/15 08:19:31;;;;;;;11.13;7.97;;;15.10;99.90;;;;;;5052687;28;20445;-77
2022/09/15 08:21:58;;;;;;;12.85;6.82;;;15.20;99.90;;;;;;5051959;28;20029;-77
2022/09/15 08:24:24;;;;;;;15.20;7.35;;;15.20;99.90;;;;;;5049981;28;20044;-77
2022/09/15 08:26:51;;;;;;;13.32;7.65;;;15.20;99.90;;;;;;5052468;28;20033;-77
2022/09/15 08:29:18;;;;;;;12.70;7.25;;;15.30;99.90;;;;;;5051500;28;20390;-78
2022/09/15 08:31:47;;;;;;;14.32;8.20;;;15.40;99.90;;;;;;5051886;28;20091;-78
2022/09/15 08:34:15;;;;;;;15.82;9.70;;;15.40;99.90;;;;;;5051705;28;20032;-77
2022/09/15 08:36:41;;;;;;;19.30;10.15;;;15.40;99.90;;;;;;5051155;28;20481;-77
2022/09/15 08:39:08;;;;;;;17.23;9.48;;;15.50;99.90;;;;;;5051825;28;20374;-77
2022/09/15 08:41:43;;;;;;;17.23;10.00;;;15.40;99.90;;;;;;5051189;28;20068;-78
2022/09/15 08:44:31;;;;;;;15.40;8.52;;;15.50;99.90;;;;;;5033177;28;20053;-77
2022/09/15 08:47:12;;;;;;;13.77;8.52;;;15.60;99.90;;;;;;5051532;28;20083;-77
2022/09/15 08:50:01;;;;;;;14.93;8.57;;;15.60;99.90;;;;;;5033462;28;20036;-78
2022/09/15 08:52:47;;;;;;;14.77;8.02;;;15.70;99.90;;;;;;5051014;28;20493;-77
2022/09/15 08:55:25;;;;;;;14.07;7.80;;;15.60;99.90;;;;;;5050344;28;20033;-77
2022/09/15 08:57:52;;;;;;;10.98;7.20;;;15.70;99.90;;;;;;5051426;28;20366;-79
2022/09/15 09:00:19;;;;;;;11.07;6.90;;;15.60;99.90;;;;;;5050914;28;20068;-79
2022/09/15 09:03:07;;;;;;;12.85;6.68;;;15.50;99.90;;;;;;5033703;28;20132;-79
2022/09/15 09:05:45;;;;;;;12.85;6.13;;;15.60;99.90;;;;;;5015504;28;20392;-79
2022/09/15 09:08:20;;;;;;;10.10;6.45;;;15.60;99.90;;;;;;5033470;28;20033;-79
2022/09/15 09:10:53;;;;;;;11.25;6.20;;;15.50;99.90;;;;;;5033672;28;20585;-81
2022/09/15 09:13:25;;;;;;;8.35;5.93;;;15.80;99.90;;;;;;5033212;28;20040;-81
2022/09/15 09:16:10;;;;;;;6.13;4.78;;;15.80;99.90;;;;;;5050432;28;20036;-81
2022/09/15 09:19:06;;;;;;;8.40;5.10;;;15.80;99.90;;;;;;5050692;28;20025;-82
2022/09/15 09:21:39;;;;;;;7.78;4.43;;;16.10;99.90;;;;;;5033384;28;20040;-83
2022/09/15 09:24:21;;;;;;;8.23;4.40;;;16.20;99.90;;;;;;5050854;28;20474;-84
2022/09/15 09:26:53;;;;;;;8.98;4.10;;;15.90;99.90;;;;;;5016439;28;20041;-84
2022/09/15 09:29:32;;;;;;;9.52;4.00;;;15.90;99.90;;;;;;5051186;28;20501;-82
2022/09/15 09:32:01;;;;;;;6.63;2.72;;;15.60;99.90;;;;;;5045329;28;20040;-81
2022/09/15 09:34:41;;;;;;;6.35;2.90;;;15.30;99.90;;;;;;5051339;28;20048;-82
2022/09/15 09:37:10;;;;;;;5.65;2.45;;;15.20;99.90;;;;;;5053229;28;20507;-81
2022/09/15 09:39:36;;;;;;;4.82;2.55;;;15.20;99.90;;;;;;5054344;28;20040;-81
2022/09/15 09:42:04;;;;;;;4.90;2.40;;;15.20;99.90;;;;;;5054435;28;20025;-80
2022/09/15 09:44:31;;;;;;;5.70;2.25;;;15.20;99.90;;;;;;5034809;28;20064;-81
2022/09/15 09:46:58;;;;;;;5.30;2.70;;;15.30;99.90;;;;;;5054713;28;20028;-80
2022/09/15 09:49:33;;;;;;;5.45;2.45;;;15.20;99.90;;;;;;5053865;28;20033;-81
2022/09/15 09:52:02;;;;;;;4.32;2.35;;;15.50;99.90;;;;;;5036841;28;20037;-81
2022/09/15 09:54:30;;;;;;;4.18;2.35;;;15.50;99.90;;;;;;5052676;28;20087;-80
2022/09/15 09:57:21;;;;;;;3.92;1.83;;;15.70;99.90;;;;;;5036040;28;20386;-82
2022/09/15 09:59:49;;;;;;;5.10;1.70;;;15.30;99.90;;;;;;5054140;28;20481;-80
2022/09/15 10:02:21;;;;;;;1.95;1.27;;;15.30;99.90;;;;;;5054021;28;20052;-81
2022/09/15 10:04:50;;;;;;;3.33;1.50;;;15.10;99.90;;;;;;5035195;28;20048;-82
2022/09/15 10:07:20;;;;;;;3.42;1.27;;;15.00;99.90;;;;;;5019370;28;20037;-80
2022/09/15 10:09:55;;;;;;;3.22;0.95;;;15.00;99.90;;;;;;5036126;28;20037;-81
2022/09/15 10:12:32;;;;;;;3.88;1.45;;;14.80;99.90;;;;;;5053450;28;20048;-80
2022/09/15 10:15:03;;;;;;;4.18;2.03;;;14.80;99.90;;;;;;5047181;28;20459;-80
2022/09/15 10:17:40;;;;;;;4.90;1.00;;;14.70;99.90;;;;;;5052962;28;20033;-79
2022/09/15 10:20:23;;;;;;;3.38;1.20;;;14.80;99.90;;;;;;5053941;28;20458;-80
2022/09/15 10:22:50;;;;;;;3.35;1.10;;;14.80;99.90;;;;;;5035857;28;20045;-81
2022/09/15 10:25:18;;;;;;;2.53;1.10;;;15.00;99.90;;;;;;5053262;28;20025;-82
2022/09/15 10:28:11;;;;;;;2.08;1.10;;;15.00;99.90;;;;;;5053129;28;20040;-81
2022/09/15 10:30:38;;;;;;;6.15;1.48;;;15.00;99.90;;;;;;5053567;28;20044;-81
2022/09/15 10:33:25;;;;;;;4.38;1.52;;;15.10;99.90;;;;;;5047204;28;20040;-79
2022/09/15 10:35:53;;;;;;;2.72;1.30;;;15.20;99.90;;;;;;5035303;28;20029;-80
2022/09/15 10:38:40;;;;;;;4.47;1.20;;;15.30;99.90;;;;;;5053656;28;20044;-83
2022/09/15 10:41:26;;;;;;;4.38;2.58;;;15.30;99.90;;;;;;5053529;28;20060;-84
2022/09/15 10:44:17;;;;;;;3.70;1.25;;;15.40;99.90;;;;;;5047220;28;20037;-82
2022/09/15 10:47:11;;;;;;;5.45;1.20;;;15.30;99.90;;;;;;5049069;28;20056;-82
2022/09/15 10:49:58;;;;;;;4.25;1.20;;;15.40;99.90;;;;;;5052954;28;20493;-82
2022/09/15 10:52:55;;;;;;;2.80;1.70;;;15.50;99.90;;;;;;5052639;28;20025;-82
2022/09/15 10:55:52;;;;;;;2.65;1.58;;;15.60;99.90;;;;;;5052546;28;20036;-80
2022/09/15 10:58:45;;;;;;;5.38;1.55;;;15.70;99.90;;;;;;5052993;28;20025;-82
2022/09/15 11:01:29;;;;;;;2.78;1.90;;;15.90;99.90;;;;;;5035470;28;20041;-81
2022/09/15 11:04:14;;;;;;;2.70;1.20;;;16.10;99.90;;;;;;5052770;28;20049;-83
2022/09/15 11:06:52;;;;;;;4.90;1.15;;;16.20;99.90;;;;;;5052787;28;20021;-84
2022/09/15 11:09:24;;;;;;;4.05;1.38;;;16.40;99.90;;;;;;5035218;28;20045;-84
2022/09/15 11:12:03;;;;;;;3.05;1.35;;;16.70;99.90;;;;;;5035362;28;20474;-82
2022/09/15 11:14:49;;;;;;;4.75;1.98;;;17.00;99.90;;;;;;5051218;28;20045;-80
2022/09/15 11:17:48;;;;;;;2.55;1.52;;;17.20;99.90;;;;;;5052738;28;20033;-83
2022/09/15 11:20:36;;;;;;;3.20;1.50;;;17.60;99.90;;;;;;5046485;28;20037;-83
2022/09/15 11:23:31;;;;;;;3.38;1.20;;;17.70;99.90;;;;;;5046655;28;20496;-84
2022/09/15 11:26:15;;;;;;;1.77;1.10;;;17.80;99.90;;;;;;5051364;28;20397;-82
2022/09/15 11:28:47;;;;;;;5.35;1.42;;;17.70;99.90;;;;;;5051874;28;20033;-84
2022/09/15 11:31:17;;;;;;;3.08;1.30;;;17.60;99.90;;;;;;5052500;28;20100;-85
2022/09/15 11:33:52;;;;;;;4.50;1.10;;;17.70;99.90;;;;;;5051110;28;20040;-84
2022/09/15 11:36:27;;;;;;;3.17;1.50;;;17.90;99.90;;;;;;5033121;28;20416;-81
2022/09/15 11:39:07;;;;;;;3.67;1.35;;;18.20;99.90;;;;;;5051787;28;20056;-81
2022/09/15 11:41:40;;;;;;;2.78;1.10;;;18.40;99.90;;;;;;5051769;28;20033;-83
2022/09/15 11:44:23;;;;;;;2.47;1.40;;;18.90;99.90;;;;;;5051505;28;20049;-86
2022/09/15 11:47:13;;;;;;;3.15;1.42;;;19.30;99.90;;;;;;5033853;28;20033;-87
2022/09/15 11:50:07;;;;;;;3.17;1.60;;;19.60;99.90;;;;;;5051855;28;20033;-82
2022/09/15 11:53:01;;;;;;;3.63;1.83;;;20.00;99.90;;;;;;5051706;28;20040;-85
2022/09/15 11:55:38;;;;;;;3.47;1.98;;;19.60;99.90;;;;;;5050714;28;20395;-81
2022/09/15 11:58:24;;;;;;;3.63;2.28;;;19.40;99.90;;;;;;5034103;28;20390;-90
2022/09/15 12:01:02;;;;;;;4.38;2.45;;;19.30;99.90;;;;;;5034742;28;20470;-86
2022/09/15 12:03:54;;;;;;;4.70;2.38;;;19.20;99.90;;;;;;5032948;28;20383;-87
2022/09/15 12:06:52;;;;;;;3.72;2.40;;;19.40;99.30;;;;;;5051351;28;20040;-83
2022/09/15 12:09:20;;;;;;;5.30;2.72;;;19.60;98.60;;;;;;5041636;28;20048;-81
2022/09/15 12:11:53;;;;;;;5.45;2.40;;;19.60;97.90;;;;;;5061950;28;20039;-83
2022/09/15 12:14:28;;;;;;;5.72;2.50;;;19.60;98.20;;;;;;5061679;28;20059;-82
2022/09/15 12:16:56;;;;;;;4.72;2.25;;;19.90;96.40;;;;;;5058506;28;20477;-82
2022/09/15 12:19:36;;;;;;;4.88;2.60;;;20.20;97.50;;;;;;5052445;28;20039;-83
2022/09/15 12:22:34;;;;;;;4.18;2.83;;;20.20;96.30;;;;;;5051834;28;20033;-80
2022/09/15 12:25:19;;;;;;;5.50;3.53;;;20.30;91.70;;;;;;5027066;28;20048;-83
2022/09/15 12:28:22;;;;;;;5.18;2.63;;;20.10;92.30;;;;;;5053367;28;20033;-79
2022/09/15 12:31:43;;;;;;;5.07;2.70;;;19.80;95.60;;;;;;5053246;28;20546;-79
2022/09/15 12:34:24;;;;;;;;;;;19.70;95.90;;;;;;4973754;28;20468;-83
2022/09/15 12:37:05;;;;;;;9.45;4.38;;;19.40;95.90;;;;;;5043117;28;19909;-80
2022/09/15 12:39:41;;;;;;;4.72;3.30;;;19.20;95.90;;;;;;5046125;28;20029;-81
2022/09/15 12:42:13;;;;;;;5.82;3.72;;;19.00;97.50;;;;;;5032621;28;20081;-81
2022/09/15 12:44:43;;;;;;;5.15;3.00;;;18.90;97.90;;;;;;5049311;28;20060;-81
2022/09/15 12:47:47;;;;;;;5.65;3.42;;;18.80;99.10;;;;;;5051527;28;20044;-81
2022/09/15 12:50:26;;;;;;;13.95;4.40;;;18.70;99.50;;;;;;5051248;28;20029;-83
2022/09/15 12:53:00;;;;;;;7.82;3.80;;;18.80;99.50;;;;;;5051618;28;20037;-82
2022/09/15 12:55:34;;;;;;;6.80;4.00;;;18.80;98.40;;;;;;5050610;28;20051;-82
2022/09/15 12:58:07;;;;;;;5.90;2.85;;;19.00;97.20;;;;;;5051812;28;20374;-81
2022/09/15 13:00:43;;;;;;;4.50;2.60;;;19.10;95.40;;;;;;5051048;28;20049;-81
2022/09/15 13:03:48;;;;;;;4.35;2.88;;;19.20;94.80;;;;;;5051533;28;20462;-78
2022/09/15 13:06:19;;;;;;;4.13;2.70;;;19.40;93.80;;;;;;5047004;28;20029;-80
2022/09/15 13:08:45;;;;;;;3.58;2.45;;;19.10;90.00;;;;;;5050542;28;20430;-81
2022/09/15 13:11:27;;;;;;;3.25;2.17;;;19.20;90.20;;;;;;5052626;28;20032;-80
2022/09/15 13:14:02;;;;;;;4.35;1.90;;;19.50;91.00;;;;;;5053632;28;20490;-83
2022/09/15 13:16:32;;;;;;;4.07;2.00;;;19.90;85.20;;;;;;5035849;28;20044;-83